createdAt,value
2018-12-20T00:00:06.352Z,11.80
2018-12-20T00:01:06.264Z,11.75
2018-12-20T00:02:06.198Z,11.67
2018-12-20T00:03:06.126Z,11.67
2018-12-20T00:04:06.052Z,11.64
2018-12-20T00:05:06.050Z,11.64
2018-12-20T00:06:06.124Z,11.60
2018-12-20T00:07:05.860Z,11.52
2018-12-20T00:08:05.792Z,11.55
2018-12-20T00:09:05.698Z,11.44
2018-12-20T00:10:05.650Z,11.47
2018-12-20T00:11:05.543Z,11.49
2018-12-20T00:12:05.470Z,11.44
2018-12-20T00:13:05.557Z,11.42
2018-12-20T00:14:05.339Z,11.47
2018-12-20T00:15:05.260Z,11.46
2018-12-20T00:16:05.310Z,11.44
2018-12-20T00:17:05.117Z,11.43
2018-12-20T00:18:05.141Z,11.36
2018-12-20T00:19:05.076Z,11.44
2018-12-20T00:20:04.971Z,11.51
2018-12-20T00:21:04.956Z,11.51
2018-12-20T00:22:04.759Z,11.49
2018-12-20T00:23:04.673Z,11.54
2018-12-20T00:24:04.618Z,11.51
2018-12-20T00:25:04.599Z,11.51
2018-12-20T00:26:04.474Z,11.58
2018-12-20T00:27:04.493Z,11.57
2018-12-20T00:28:04.383Z,11.60
2018-12-20T00:29:04.339Z,11.54
2018-12-20T00:30:04.335Z,11.49
2018-12-20T00:31:04.187Z,11.47
2018-12-20T00:32:04.026Z,11.44
2018-12-20T00:33:03.964Z,11.47
2018-12-20T00:34:03.894Z,11.55
2018-12-20T00:35:04.105Z,11.61
2018-12-20T00:36:03.861Z,11.52
2018-12-20T00:37:03.726Z,11.60
2018-12-20T00:38:03.666Z,11.57
2018-12-20T00:39:03.542Z,11.39
2018-12-20T00:40:06.563Z,11.42
2018-12-20T00:41:03.396Z,11.33
2018-12-20T00:42:03.391Z,11.42
2018-12-20T00:43:03.273Z,11.32
2018-12-20T00:44:03.176Z,11.25
2018-12-20T00:45:03.242Z,11.18
2018-12-20T00:46:03.027Z,11.15
2018-12-20T00:47:02.959Z,11.18
2018-12-20T00:48:02.878Z,11.15
2018-12-20T00:49:03.044Z,10.96
2018-12-20T00:50:02.741Z,10.94
2018-12-20T00:51:02.735Z,10.88
2018-12-20T00:52:02.647Z,10.79
2018-12-20T00:53:02.523Z,10.78
2018-12-20T00:54:02.455Z,10.64
2018-12-20T00:55:02.371Z,10.70
2018-12-20T00:56:02.360Z,10.78
2018-12-20T00:57:02.264Z,10.81
2018-12-20T00:58:02.169Z,10.91
2018-12-20T00:59:02.211Z,10.96
2018-12-20T01:00:02.022Z,10.84
2018-12-20T01:01:01.942Z,10.89
2018-12-20T01:02:01.948Z,10.91
2018-12-20T01:03:01.793Z,10.82
2018-12-20T01:04:01.722Z,10.82
2018-12-20T01:05:01.759Z,10.71
2018-12-20T01:06:01.570Z,10.67
2018-12-20T01:07:01.514Z,10.63
2018-12-20T01:08:01.491Z,10.63
2018-12-20T01:09:01.468Z,10.71
2018-12-20T01:10:01.501Z,10.73
2018-12-20T01:11:01.368Z,10.76
2018-12-20T01:12:01.126Z,10.68
2018-12-20T01:13:01.089Z,10.81
2018-12-20T01:14:01.048Z,10.79
2018-12-20T01:15:01.150Z,10.79
2018-12-20T01:16:00.849Z,10.79
2018-12-20T01:17:00.776Z,10.81
2018-12-20T01:18:00.695Z,10.74
2018-12-20T01:19:00.664Z,10.79
2018-12-20T01:20:00.741Z,10.84
2018-12-20T01:21:00.551Z,10.76
2018-12-20T01:22:00.399Z,10.78
2018-12-20T01:23:00.402Z,10.73
2018-12-20T01:24:00.284Z,10.74
2018-12-20T01:25:00.227Z,10.61
2018-12-20T01:26:00.251Z,10.66
2018-12-20T01:27:00.162Z,10.70
2018-12-20T01:28:00.004Z,10.63
2018-12-20T01:29:00.060Z,10.64
2018-12-20T01:30:00.061Z,10.61
2018-12-20T01:30:59.791Z,10.68
2018-12-20T01:31:59.724Z,10.71
2018-12-20T01:32:59.626Z,10.61
2018-12-20T01:33:59.674Z,10.60
2018-12-20T01:34:59.487Z,10.60
2018-12-20T01:35:59.432Z,10.59
2018-12-20T01:36:59.318Z,10.73
2018-12-20T01:37:59.246Z,10.71
2018-12-20T01:38:59.185Z,10.68
2018-12-20T01:39:59.137Z,10.68
2018-12-20T01:40:59.031Z,10.73
2018-12-20T01:41:59.087Z,10.59
2018-12-20T01:42:59.009Z,10.55
2018-12-20T01:43:58.909Z,10.51
2018-12-20T01:44:58.738Z,10.48
2018-12-20T01:45:58.680Z,10.55
2018-12-20T01:46:58.715Z,10.45
2018-12-20T01:47:58.505Z,10.52
2018-12-20T01:48:58.443Z,10.51
2018-12-20T01:49:58.370Z,10.48
2018-12-20T01:50:58.340Z,10.52
2018-12-20T01:51:58.301Z,10.51
2018-12-20T01:52:58.150Z,10.53
2018-12-20T01:53:58.129Z,10.66
2018-12-20T01:54:58.009Z,10.59
2018-12-20T01:55:58.041Z,10.61
2018-12-20T01:56:57.883Z,10.56
2018-12-20T01:57:57.843Z,10.71
2018-12-20T01:58:57.922Z,10.78
2018-12-20T01:59:57.665Z,10.68
2018-12-20T02:00:57.717Z,10.66
2018-12-20T02:01:57.510Z,10.73
2018-12-20T02:02:57.416Z,10.63
2018-12-20T02:03:57.356Z,10.48
2018-12-20T02:04:57.291Z,10.48
2018-12-20T02:05:57.203Z,10.52
2018-12-20T02:06:57.130Z,10.51
2018-12-20T02:07:57.210Z,10.48
2018-12-20T02:08:56.970Z,10.47
2018-12-20T02:09:57.065Z,10.51
2018-12-20T02:10:56.933Z,10.56
2018-12-20T02:11:56.841Z,10.52
2018-12-20T02:12:56.742Z,10.52
2018-12-20T02:13:56.623Z,10.52
2018-12-20T02:15:01.610Z,10.48
2018-12-20T02:15:56.476Z,10.47
2018-12-20T02:16:56.627Z,10.55
2018-12-20T02:17:56.520Z,10.55
2018-12-20T02:18:56.251Z,10.55
2018-12-20T02:19:56.286Z,10.56
2018-12-20T02:20:56.299Z,10.52
2018-12-20T02:21:56.018Z,10.63
2018-12-20T02:22:56.053Z,10.59
2018-12-20T02:23:55.896Z,10.64
2018-12-20T02:24:55.852Z,10.66
2018-12-20T02:25:55.751Z,10.66
2018-12-20T02:26:55.694Z,10.68
2018-12-20T02:27:55.620Z,10.67
2018-12-20T02:28:55.745Z,10.67
2018-12-20T02:29:55.640Z,10.70
2018-12-20T02:30:55.379Z,10.63
2018-12-20T02:31:55.298Z,10.63
2018-12-20T02:32:55.305Z,10.66
2018-12-20T02:33:55.146Z,10.59
2018-12-20T02:34:55.168Z,10.71
2018-12-20T02:35:55.210Z,10.67
2018-12-20T02:36:55.102Z,10.70
2018-12-20T02:37:55.167Z,10.68
2018-12-20T02:38:54.903Z,10.68
2018-12-20T02:39:54.855Z,10.71
2018-12-20T02:40:54.675Z,10.61
2018-12-20T02:41:54.565Z,10.66
2018-12-20T02:42:54.613Z,10.74
2018-12-20T02:43:54.579Z,10.84
2018-12-20T02:44:54.577Z,10.86
2018-12-20T02:45:54.506Z,10.79
2018-12-20T02:46:54.208Z,10.79
2018-12-20T02:47:54.228Z,10.84
2018-12-20T02:48:54.222Z,10.84
2018-12-20T02:49:53.991Z,10.86
2018-12-20T02:50:53.938Z,10.84
2018-12-20T02:51:53.857Z,10.82
2018-12-20T02:52:53.906Z,10.92
2018-12-20T02:53:53.709Z,10.89
2018-12-20T02:54:53.889Z,10.89
2018-12-20T02:55:53.661Z,10.99
2018-12-20T02:56:53.555Z,10.85
2018-12-20T02:57:53.404Z,10.89
2018-12-20T02:58:53.409Z,10.91
2018-12-20T02:59:53.371Z,10.86
2018-12-20T03:00:53.512Z,10.85
2018-12-20T03:01:53.304Z,10.94
2018-12-20T03:02:53.060Z,10.94
2018-12-20T03:03:52.978Z,10.91
2018-12-20T03:04:52.952Z,10.89
2018-12-20T03:05:52.929Z,10.94
2018-12-20T03:06:52.762Z,10.97
2018-12-20T03:07:52.773Z,10.96
2018-12-20T03:08:52.619Z,10.86
2018-12-20T03:09:52.732Z,10.91
2018-12-20T03:10:52.485Z,10.92
2018-12-20T03:11:52.401Z,10.96
2018-12-20T03:12:52.340Z,10.96
2018-12-20T03:13:52.274Z,10.85
2018-12-20T03:14:52.445Z,10.96
2018-12-20T03:15:52.116Z,10.89
2018-12-20T03:16:52.046Z,10.85
2018-12-20T03:17:52.044Z,10.89
2018-12-20T03:18:51.996Z,10.91
2018-12-20T03:19:51.863Z,10.88
2018-12-20T03:20:51.928Z,10.91
2018-12-20T03:21:51.677Z,10.89
2018-12-20T03:22:51.614Z,10.89
2018-12-20T03:23:51.527Z,10.97
2018-12-20T03:24:51.452Z,10.97
2018-12-20T03:25:51.375Z,10.91
2018-12-20T03:26:51.405Z,10.88
2018-12-20T03:27:51.270Z,10.82
2018-12-20T03:28:51.206Z,10.86
2018-12-20T03:29:51.093Z,10.84
2018-12-20T03:30:51.060Z,10.89
2018-12-20T03:31:51.091Z,10.96
2018-12-20T03:32:50.868Z,11.03
2018-12-20T03:33:50.867Z,11.02
2018-12-20T03:34:50.733Z,10.91
2018-12-20T03:35:50.651Z,10.92
2018-12-20T03:36:50.710Z,10.96
2018-12-20T03:37:50.580Z,10.86
2018-12-20T03:38:50.457Z,10.88
2018-12-20T03:39:50.368Z,11.00
2018-12-20T03:40:50.356Z,11.00
2018-12-20T03:41:50.247Z,11.02
2018-12-20T03:42:50.317Z,11.02
2018-12-20T03:43:50.067Z,10.96
2018-12-20T03:44:50.146Z,11.03
2018-12-20T03:45:50.128Z,11.03
2018-12-20T03:46:49.845Z,11.00
2018-12-20T03:47:49.802Z,11.03
2018-12-20T03:48:49.774Z,11.07
2018-12-20T03:49:49.692Z,10.97
2018-12-20T03:50:49.676Z,10.92
2018-12-20T03:51:49.809Z,10.86
2018-12-20T03:52:49.439Z,10.86
2018-12-20T03:53:49.643Z,10.82
2018-12-20T03:54:49.285Z,10.76
2018-12-20T03:55:49.201Z,10.81
2018-12-20T03:56:49.233Z,10.73
2018-12-20T03:57:49.254Z,10.76
2018-12-20T03:58:48.995Z,10.76
2018-12-20T03:59:48.915Z,10.67
2018-12-20T04:00:48.855Z,10.59
2018-12-20T04:01:48.792Z,10.48
2018-12-20T04:02:48.690Z,10.51
2018-12-20T04:03:48.675Z,10.38
2018-12-20T04:04:48.556Z,10.36
2018-12-20T04:05:48.512Z,10.34
2018-12-20T04:06:48.539Z,10.27
2018-12-20T04:07:48.363Z,10.09
2018-12-20T04:08:48.526Z,10.17
2018-12-20T04:09:48.205Z,9.99
2018-12-20T04:10:48.140Z,9.91
2018-12-20T04:11:48.035Z,9.83
2018-12-20T04:12:48.081Z,9.84
2018-12-20T04:13:48.282Z,9.79
2018-12-20T04:14:47.900Z,9.89
2018-12-20T04:15:47.985Z,9.84
2018-12-20T04:16:48.021Z,9.83
2018-12-20T04:17:49.440Z,9.89
2018-12-20T04:18:47.680Z,9.90
2018-12-20T04:19:47.454Z,9.89
2018-12-20T04:20:47.397Z,9.99
2018-12-20T04:21:47.317Z,9.97
2018-12-20T04:22:47.300Z,10.04
2018-12-20T04:23:47.157Z,9.97
2018-12-20T04:24:47.306Z,9.96
2018-12-20T04:25:47.181Z,9.90
2018-12-20T04:26:46.948Z,9.99
2018-12-20T04:27:46.888Z,9.93
2018-12-20T04:28:46.802Z,10.04
2018-12-20T04:29:46.764Z,9.96
2018-12-20T04:30:46.831Z,10.07
2018-12-20T04:31:46.613Z,10.01
2018-12-20T04:32:46.526Z,9.97
2018-12-20T04:33:46.432Z,9.86
2018-12-20T04:34:46.529Z,9.76
2018-12-20T04:35:46.327Z,9.71
2018-12-20T04:36:46.208Z,9.79
2018-12-20T04:37:46.200Z,9.84
2018-12-20T04:38:46.171Z,9.74
2018-12-20T04:39:46.098Z,9.84
2018-12-20T04:40:45.985Z,9.86
2018-12-20T04:41:46.100Z,9.86
2018-12-20T04:42:45.813Z,9.84
2018-12-20T04:43:45.972Z,9.91
2018-12-20T04:44:45.837Z,9.97
2018-12-20T04:45:46.832Z,9.97
2018-12-20T04:46:45.737Z,10.07
2018-12-20T04:47:45.424Z,10.08
2018-12-20T04:48:45.547Z,10.08
2018-12-20T04:49:45.297Z,10.11
2018-12-20T04:50:45.209Z,9.97
2018-12-20T04:51:45.095Z,10.02
2018-12-20T04:52:45.266Z,9.99
2018-12-20T04:53:45.086Z,10.07
2018-12-20T04:54:44.952Z,10.12
2018-12-20T04:55:44.965Z,10.07
2018-12-20T04:56:44.725Z,9.96
2018-12-20T04:57:44.658Z,10.01
2018-12-20T04:58:44.703Z,9.94
2018-12-20T04:59:44.827Z,9.87
2018-12-20T05:00:44.446Z,9.94
2018-12-20T05:01:44.655Z,10.04
2018-12-20T05:02:44.416Z,10.01
2018-12-20T05:03:44.391Z,9.94
2018-12-20T05:04:44.584Z,10.15
2018-12-20T05:05:44.384Z,10.14
2018-12-20T05:06:44.018Z,10.25
2018-12-20T05:07:43.948Z,10.33
2018-12-20T05:08:44.081Z,10.25
2018-12-20T05:09:43.786Z,10.22
2018-12-20T05:10:43.838Z,10.33
2018-12-20T05:11:43.842Z,10.33
2018-12-20T05:12:43.826Z,10.33
2018-12-20T05:13:43.550Z,10.42
2018-12-20T05:14:43.418Z,10.41
2018-12-20T05:15:43.350Z,10.51
2018-12-20T05:16:43.300Z,10.53
2018-12-20T05:17:43.312Z,10.59
2018-12-20T05:18:43.127Z,10.48
2018-12-20T05:19:43.079Z,10.52
2018-12-20T05:20:43.005Z,10.61
2018-12-20T05:21:42.897Z,10.56
2018-12-20T05:22:43.083Z,10.53
2018-12-20T05:23:42.933Z,10.47
2018-12-20T05:24:42.818Z,10.48
2018-12-20T05:25:42.805Z,10.53
2018-12-20T05:26:42.854Z,10.60
2018-12-20T05:27:42.503Z,10.51
2018-12-20T05:28:42.406Z,10.51
2018-12-20T05:29:42.325Z,10.55
2018-12-20T05:30:42.513Z,10.59
2018-12-20T05:31:42.248Z,10.60
2018-12-20T05:32:42.137Z,10.55
2018-12-20T05:33:42.022Z,10.60
2018-12-20T05:34:41.968Z,10.53
2018-12-20T05:35:42.069Z,10.66
2018-12-20T05:36:41.825Z,10.59
2018-12-20T05:37:41.773Z,10.56
2018-12-20T05:38:41.675Z,10.68
2018-12-20T05:39:41.642Z,10.63
2018-12-20T05:40:41.630Z,10.60
2018-12-20T05:41:41.766Z,10.61
2018-12-20T05:42:41.642Z,10.67
2018-12-20T05:43:41.348Z,10.63
2018-12-20T05:44:41.364Z,10.56
2018-12-20T05:45:41.162Z,10.66
2018-12-20T05:46:41.276Z,10.60
2018-12-20T05:47:41.084Z,10.61
2018-12-20T05:48:40.987Z,10.59
2018-12-20T05:49:40.867Z,10.60
2018-12-20T05:50:43.008Z,10.60
2018-12-20T05:51:40.910Z,10.68
2018-12-20T05:52:40.642Z,10.71
2018-12-20T05:53:40.569Z,10.74
2018-12-20T05:54:40.629Z,10.64
2018-12-20T05:55:40.539Z,10.81
2018-12-20T05:56:40.484Z,10.70
2018-12-20T05:57:40.278Z,10.66
2018-12-20T05:58:40.210Z,10.74
2018-12-20T05:59:40.399Z,10.73
2018-12-20T06:00:40.262Z,10.76
2018-12-20T06:01:40.009Z,10.74
2018-12-20T06:02:40.054Z,10.68
2018-12-20T06:03:39.863Z,10.61
2018-12-20T06:04:39.997Z,10.70
2018-12-20T06:05:39.751Z,10.66
2018-12-20T06:06:39.923Z,10.70
2018-12-20T06:07:39.684Z,10.71
2018-12-20T06:08:39.497Z,10.76
2018-12-20T06:09:39.547Z,10.67
2018-12-20T06:10:39.340Z,10.68
2018-12-20T06:11:39.301Z,10.68
2018-12-20T06:12:39.202Z,10.68
2018-12-20T06:13:39.244Z,10.64
2018-12-20T06:14:39.219Z,10.66
2018-12-20T06:15:39.152Z,10.70
2018-12-20T06:16:38.907Z,10.60
2018-12-20T06:17:38.838Z,10.71
2018-12-20T06:18:38.970Z,10.60
2018-12-20T06:19:38.690Z,10.55
2018-12-20T06:20:38.608Z,10.64
2018-12-20T06:21:38.768Z,10.60
2018-12-20T06:22:38.466Z,10.64
2018-12-20T06:23:38.401Z,10.63
2018-12-20T06:24:38.331Z,10.55
2018-12-20T06:25:38.258Z,10.70
2018-12-20T06:26:38.182Z,10.70
2018-12-20T06:27:38.116Z,10.73
2018-12-20T06:28:38.053Z,10.70
2018-12-20T06:29:37.968Z,10.68
2018-12-20T06:30:37.892Z,10.67
2018-12-20T06:31:37.828Z,10.61
2018-12-20T06:32:37.746Z,10.59
2018-12-20T06:33:37.669Z,10.52
2018-12-20T06:34:37.592Z,10.52
2018-12-20T06:35:37.536Z,10.53
2018-12-20T06:36:37.469Z,10.55
2018-12-20T06:37:37.387Z,10.48
2018-12-20T06:38:37.312Z,10.53
2018-12-20T06:39:37.233Z,10.53
2018-12-20T06:40:37.159Z,10.52
2018-12-20T06:41:37.088Z,10.61
2018-12-20T06:42:37.013Z,10.42
2018-12-20T06:43:36.949Z,10.45
2018-12-20T06:44:36.872Z,10.47
2018-12-20T06:45:36.814Z,10.47
2018-12-20T06:46:36.726Z,10.40
2018-12-20T06:47:36.658Z,10.47
2018-12-20T06:48:36.584Z,10.59
2018-12-20T06:49:36.516Z,10.47
2018-12-20T06:50:36.453Z,10.41
2018-12-20T06:51:36.355Z,10.47
2018-12-20T06:52:36.306Z,10.51
2018-12-20T06:53:36.236Z,10.42
2018-12-20T06:54:36.177Z,10.32
2018-12-20T06:55:36.088Z,10.40
2018-12-20T06:56:36.004Z,10.42
2018-12-20T06:57:35.932Z,10.36
2018-12-20T06:58:35.860Z,10.42
2018-12-20T06:59:35.772Z,10.41
2018-12-20T07:00:35.703Z,10.41
2018-12-20T07:01:35.640Z,10.36
2018-12-20T07:02:35.566Z,10.38
2018-12-20T07:03:35.479Z,10.42
2018-12-20T07:04:35.415Z,10.52
2018-12-20T07:05:35.348Z,10.51
2018-12-20T07:06:35.282Z,10.59
2018-12-20T07:07:35.202Z,10.38
2018-12-20T07:08:35.128Z,10.48
2018-12-20T07:09:35.051Z,10.51
2018-12-20T07:10:34.977Z,10.56
2018-12-20T07:11:34.911Z,10.52
2018-12-20T07:12:34.837Z,10.51
2018-12-20T07:13:34.773Z,10.55
2018-12-20T07:14:34.692Z,10.47
2018-12-20T07:15:34.630Z,10.53
2018-12-20T07:16:34.551Z,10.51
2018-12-20T07:17:34.476Z,10.51
2018-12-20T07:18:34.405Z,10.55
2018-12-20T07:19:34.317Z,10.55
2018-12-20T07:20:34.245Z,10.44
2018-12-20T07:21:34.203Z,10.44
2018-12-20T07:22:34.107Z,10.51
2018-12-20T07:23:34.049Z,10.53
2018-12-20T07:24:33.967Z,10.48
2018-12-20T07:25:33.895Z,10.48
2018-12-20T07:26:33.819Z,10.41
2018-12-20T07:27:33.753Z,10.41
2018-12-20T07:28:33.657Z,10.27
2018-12-20T07:29:33.588Z,10.42
2018-12-20T07:30:33.517Z,10.29
2018-12-20T07:31:33.450Z,10.26
2018-12-20T07:32:33.380Z,10.27
2018-12-20T07:33:33.305Z,10.25
2018-12-20T07:34:33.223Z,10.15
2018-12-20T07:35:33.160Z,10.23
2018-12-20T07:36:33.088Z,10.14
2018-12-20T07:37:33.010Z,10.14
2018-12-20T07:38:32.942Z,10.09
2018-12-20T07:39:32.853Z,10.07
2018-12-20T07:40:32.800Z,10.12
2018-12-20T07:41:32.724Z,10.09
2018-12-20T07:42:32.758Z,10.17
2018-12-20T07:43:32.569Z,10.01
2018-12-20T07:44:32.495Z,10.12
2018-12-20T07:45:32.420Z,10.02
2018-12-20T07:46:37.819Z,9.90
2018-12-20T07:47:32.279Z,9.99
2018-12-20T07:48:32.511Z,10.04
2018-12-20T07:49:32.117Z,10.01
2018-12-20T07:50:32.047Z,9.93
2018-12-20T07:51:32.000Z,9.94
2018-12-20T07:52:31.913Z,9.96
2018-12-20T07:53:31.841Z,9.91
2018-12-20T07:54:31.762Z,9.89
2018-12-20T07:55:31.681Z,9.76
2018-12-20T07:56:31.607Z,9.72
2018-12-20T07:57:31.529Z,9.75
2018-12-20T07:58:31.457Z,9.84
2018-12-20T07:59:31.403Z,9.74
2018-12-20T08:00:31.327Z,9.89
2018-12-20T08:01:31.248Z,9.89
2018-12-20T08:02:31.215Z,9.89
2018-12-20T08:03:31.095Z,9.93
2018-12-20T08:04:31.019Z,9.91
2018-12-20T08:05:30.955Z,10.11
2018-12-20T08:06:30.879Z,10.07
2018-12-20T08:07:30.815Z,10.08
2018-12-20T08:08:30.725Z,10.12
2018-12-20T08:09:30.651Z,10.11
2018-12-20T08:10:30.575Z,10.18
2018-12-20T08:11:30.523Z,10.29
2018-12-20T08:12:30.442Z,10.36
2018-12-20T08:13:30.363Z,10.42
2018-12-20T08:14:30.302Z,10.40
2018-12-20T08:15:30.237Z,10.40
2018-12-20T08:16:30.146Z,10.47
2018-12-20T08:17:30.075Z,10.32
2018-12-20T08:18:30.005Z,10.47
2018-12-20T08:19:36.169Z,10.51
2018-12-20T08:20:29.864Z,10.64
2018-12-20T08:21:29.786Z,10.64
2018-12-20T08:22:29.715Z,10.56
2018-12-20T08:23:29.660Z,10.63
2018-12-20T08:24:29.559Z,10.59
2018-12-20T08:25:29.484Z,10.73
2018-12-20T08:26:29.411Z,10.71
2018-12-20T08:27:29.350Z,10.71
2018-12-20T08:28:29.275Z,10.76
2018-12-20T08:29:29.205Z,10.74
2018-12-20T08:30:29.149Z,10.82
2018-12-20T08:31:29.065Z,10.79
2018-12-20T08:32:28.975Z,10.82
2018-12-20T08:33:28.900Z,10.84
2018-12-20T08:34:28.830Z,10.79
2018-12-20T08:35:28.774Z,10.73
2018-12-20T08:36:28.699Z,10.64
2018-12-20T08:37:28.615Z,10.71
2018-12-20T08:38:28.555Z,10.67
2018-12-20T08:39:28.480Z,10.67
2018-12-20T08:40:28.407Z,10.61
2018-12-20T08:41:28.337Z,10.64
2018-12-20T08:42:28.262Z,10.70
2018-12-20T08:43:28.184Z,10.67
2018-12-20T08:44:28.126Z,10.73
2018-12-20T08:45:28.035Z,10.66
2018-12-20T08:46:27.984Z,10.67
2018-12-20T08:47:27.897Z,10.70
2018-12-20T08:48:27.827Z,10.76
2018-12-20T08:49:27.753Z,10.82
2018-12-20T08:50:27.687Z,10.67
2018-12-20T08:51:27.621Z,10.64
2018-12-20T08:52:27.520Z,10.66
2018-12-20T08:53:27.460Z,10.73
2018-12-20T08:54:27.390Z,10.66
2018-12-20T08:55:27.310Z,10.71
2018-12-20T08:56:27.235Z,10.74
2018-12-20T08:57:27.161Z,10.81
2018-12-20T08:58:27.122Z,10.82
2018-12-20T08:59:27.033Z,10.85
2018-12-20T09:00:26.954Z,10.91
2018-12-20T09:01:26.887Z,10.92
2018-12-20T09:02:26.814Z,10.94
2018-12-20T09:03:26.734Z,10.94
2018-12-20T09:04:26.662Z,11.04
2018-12-20T09:05:26.586Z,10.99
2018-12-20T09:06:26.512Z,11.00
2018-12-20T09:07:26.453Z,11.04
2018-12-20T09:08:26.382Z,11.11
2018-12-20T09:09:26.301Z,11.03
2018-12-20T09:10:26.228Z,11.07
2018-12-20T09:11:26.165Z,11.14
2018-12-20T09:12:26.087Z,11.07
2018-12-20T09:13:26.026Z,11.14
2018-12-20T09:14:25.978Z,11.09
2018-12-20T09:15:25.868Z,11.11
2018-12-20T09:16:25.794Z,11.21
2018-12-20T09:17:25.734Z,11.09
2018-12-20T09:18:25.671Z,11.22
2018-12-20T09:19:25.614Z,11.24
2018-12-20T09:20:32.531Z,11.25
2018-12-20T09:21:25.442Z,11.21
2018-12-20T09:22:25.361Z,11.14
2018-12-20T09:23:25.299Z,11.22
2018-12-20T09:24:25.234Z,11.10
2018-12-20T09:25:25.169Z,11.11
2018-12-20T09:26:25.076Z,11.14
2018-12-20T09:27:25.018Z,11.24
2018-12-20T09:28:24.942Z,11.21
2018-12-20T09:29:24.873Z,11.33
2018-12-20T09:30:30.458Z,11.42
2018-12-20T09:31:24.720Z,11.43
2018-12-20T09:32:24.641Z,11.52
2018-12-20T09:33:24.576Z,11.49
2018-12-20T09:34:24.508Z,11.44
2018-12-20T09:35:24.448Z,11.32
2018-12-20T09:36:24.371Z,11.46
2018-12-20T09:37:24.299Z,11.33
2018-12-20T09:38:24.236Z,11.39
2018-12-20T09:39:24.167Z,11.40
2018-12-20T09:40:24.067Z,11.43
2018-12-20T09:41:24.015Z,11.43
2018-12-20T09:42:24.058Z,11.44
2018-12-20T09:43:25.051Z,11.47
2018-12-20T09:44:23.822Z,11.46
2018-12-20T09:45:23.739Z,11.11
2018-12-20T09:46:23.646Z,10.88
2018-12-20T09:47:23.584Z,10.85
2018-12-20T09:48:23.515Z,10.79
2018-12-20T09:49:23.443Z,10.79
2018-12-20T09:50:23.369Z,10.79
2018-12-20T09:51:23.286Z,10.89
2018-12-20T09:52:23.215Z,10.91
2018-12-20T09:53:23.147Z,11.07
2018-12-20T09:54:23.070Z,11.25
2018-12-20T09:55:23.008Z,11.24
2018-12-20T09:56:22.960Z,11.17
2018-12-20T09:57:22.860Z,11.37
2018-12-20T09:58:22.786Z,11.40
2018-12-20T09:59:22.729Z,11.43
2018-12-20T10:00:22.677Z,11.46
2018-12-20T10:01:22.582Z,11.47
2018-12-20T10:02:22.538Z,11.51
2018-12-20T10:03:22.434Z,11.43
2018-12-20T10:04:22.362Z,11.57
2018-12-20T10:05:22.292Z,11.64
2018-12-20T10:06:22.238Z,11.67
2018-12-20T10:07:22.157Z,11.65
2018-12-20T10:08:22.246Z,11.79
2018-12-20T10:09:22.015Z,11.88
2018-12-20T10:10:21.948Z,11.79
2018-12-20T10:11:21.866Z,11.73
2018-12-20T10:12:21.784Z,11.79
2018-12-20T10:13:21.735Z,11.85
2018-12-20T10:14:21.657Z,11.91
2018-12-20T10:15:21.597Z,11.96
2018-12-20T10:16:21.510Z,11.95
2018-12-20T10:17:21.492Z,12.07
2018-12-20T10:18:21.372Z,12.17
2018-12-20T10:19:21.304Z,12.21
2018-12-20T10:20:21.234Z,12.21
2018-12-20T10:21:21.977Z,12.32
2018-12-20T10:22:21.107Z,12.34
2018-12-20T10:23:21.018Z,12.45
2018-12-20T10:24:20.953Z,12.41
2018-12-20T10:25:20.880Z,12.56
2018-12-20T10:26:20.810Z,12.59
2018-12-20T10:27:20.726Z,12.67
2018-12-20T10:28:20.677Z,12.70
2018-12-20T10:29:20.601Z,12.78
2018-12-20T10:30:20.526Z,12.77
2018-12-20T10:31:20.448Z,12.74
2018-12-20T10:32:20.382Z,12.74
2018-12-20T10:33:20.306Z,12.77
2018-12-20T10:34:20.251Z,12.77
2018-12-20T10:35:20.174Z,12.85
2018-12-20T10:36:20.109Z,12.86
2018-12-20T10:37:20.045Z,12.95
2018-12-20T10:38:19.967Z,12.89
2018-12-20T10:39:19.884Z,12.93
2018-12-20T10:40:19.824Z,12.89
2018-12-20T10:41:19.752Z,12.82
2018-12-20T10:42:19.682Z,12.74
2018-12-20T10:43:19.616Z,12.62
2018-12-20T10:44:19.550Z,12.56
2018-12-20T10:45:19.464Z,12.50
2018-12-20T10:46:19.482Z,12.35
2018-12-20T10:47:19.337Z,12.35
2018-12-20T10:48:19.276Z,12.34
2018-12-20T10:49:19.199Z,12.46
2018-12-20T10:50:19.127Z,12.34
2018-12-20T10:51:19.067Z,12.46
2018-12-20T10:52:19.502Z,12.60
2018-12-20T10:53:18.910Z,12.56
2018-12-20T10:54:18.853Z,12.60
2018-12-20T10:55:18.781Z,12.65
2018-12-20T10:56:18.713Z,12.74
2018-12-20T10:57:18.636Z,12.77
2018-12-20T10:58:18.567Z,12.79
2018-12-20T10:59:18.488Z,12.85
2018-12-20T11:00:18.420Z,12.89
2018-12-20T11:01:18.362Z,12.96
2018-12-20T11:02:18.291Z,12.93
2018-12-20T11:03:18.210Z,12.97
2018-12-20T11:04:18.147Z,13.05
2018-12-20T11:05:18.088Z,12.90
2018-12-20T11:06:18.018Z,12.90
2018-12-20T11:07:18.011Z,12.97
2018-12-20T11:08:17.880Z,12.97
2018-12-20T11:09:17.833Z,12.97
2018-12-20T11:10:17.734Z,13.00
2018-12-20T11:11:17.650Z,12.93
2018-12-20T11:12:17.603Z,12.87
2018-12-20T11:13:17.513Z,12.85
2018-12-20T11:14:17.446Z,12.87
2018-12-20T11:15:17.387Z,12.95
2018-12-20T11:16:17.319Z,12.87
2018-12-20T11:17:17.235Z,12.89
2018-12-20T11:18:17.190Z,12.86
2018-12-20T11:19:17.102Z,12.92
2018-12-20T11:20:17.038Z,13.01
2018-12-20T11:21:16.968Z,13.00
2018-12-20T11:22:16.894Z,12.97
2018-12-20T11:23:16.818Z,12.96
2018-12-20T11:24:16.763Z,12.92
2018-12-20T11:25:16.690Z,13.00
2018-12-20T11:26:16.623Z,13.11
2018-12-20T11:27:16.542Z,13.08
2018-12-20T11:28:16.472Z,13.14
2018-12-20T11:29:16.402Z,13.11
2018-12-20T11:30:16.390Z,13.14
2018-12-20T11:31:16.270Z,13.23
2018-12-20T11:32:16.203Z,13.26
2018-12-20T11:33:16.141Z,13.29
2018-12-20T11:34:16.058Z,13.26
2018-12-20T11:35:15.993Z,13.07
2018-12-20T11:36:15.923Z,12.93
2018-12-20T11:37:15.857Z,12.87
2018-12-20T11:38:15.787Z,12.93
2018-12-20T11:39:15.705Z,12.89
2018-12-20T11:40:15.651Z,12.83
2018-12-20T11:41:15.567Z,12.89
2018-12-20T11:42:15.497Z,12.93
2018-12-20T11:43:15.550Z,12.90
2018-12-20T11:44:15.380Z,12.86
2018-12-20T11:45:15.295Z,12.79
2018-12-20T11:46:15.223Z,12.74
2018-12-20T11:47:15.140Z,12.74
2018-12-20T11:48:15.077Z,12.71
2018-12-20T11:49:15.012Z,12.71
2018-12-20T11:50:14.948Z,12.70
2018-12-20T11:51:14.879Z,12.65
2018-12-20T11:52:14.800Z,12.68
2018-12-20T11:53:14.726Z,12.70
2018-12-20T11:54:14.657Z,12.75
2018-12-20T11:55:14.599Z,12.89
2018-12-20T11:56:14.524Z,12.85
2018-12-20T11:57:14.452Z,12.87
2018-12-20T11:58:14.390Z,12.95
2018-12-20T11:59:14.352Z,12.97
2018-12-20T12:00:14.265Z,13.08
2018-12-20T12:01:14.175Z,13.05
2018-12-20T12:02:14.103Z,13.03
2018-12-20T12:03:14.056Z,13.05
2018-12-20T12:04:13.949Z,13.05
2018-12-20T12:05:13.899Z,13.08
2018-12-20T12:06:13.825Z,13.11
2018-12-20T12:07:13.742Z,13.08
2018-12-20T12:08:13.673Z,13.14
2018-12-20T12:09:13.630Z,13.11
2018-12-20T12:10:13.551Z,13.10
2018-12-20T12:11:13.489Z,13.11
2018-12-20T12:12:13.414Z,13.26
2018-12-20T12:13:13.347Z,13.22
2018-12-20T12:14:13.265Z,13.19
2018-12-20T12:15:13.186Z,13.14
2018-12-20T12:16:13.134Z,13.20
2018-12-20T12:17:13.080Z,13.11
2018-12-20T12:18:12.981Z,13.17
2018-12-20T12:19:12.925Z,13.20
2018-12-20T12:20:12.854Z,13.28
2018-12-20T12:21:12.764Z,13.26
2018-12-20T12:22:12.696Z,13.32
2018-12-20T12:23:12.637Z,13.32
2018-12-20T12:24:12.572Z,13.41
2018-12-20T12:25:12.499Z,13.39
2018-12-20T12:26:12.431Z,13.45
2018-12-20T12:27:12.344Z,13.45
2018-12-20T12:28:12.296Z,13.48
2018-12-20T12:29:12.220Z,13.49
2018-12-20T12:30:12.154Z,13.48
2018-12-20T12:31:12.088Z,13.51
2018-12-20T12:32:12.000Z,13.46
2018-12-20T12:33:11.931Z,13.48
2018-12-20T12:34:11.880Z,13.46
2018-12-20T12:35:11.804Z,13.46
2018-12-20T12:36:11.734Z,13.54
2018-12-20T12:37:11.660Z,13.52
2018-12-20T12:38:11.582Z,13.46
2018-12-20T12:39:11.529Z,13.41
2018-12-20T12:40:11.449Z,13.38
2018-12-20T12:41:11.404Z,13.42
2018-12-20T12:42:11.323Z,13.46
2018-12-20T12:43:11.242Z,13.39
2018-12-20T12:44:11.174Z,13.44
2018-12-20T12:45:11.151Z,13.45
2018-12-20T12:46:11.027Z,13.36
2018-12-20T12:47:10.971Z,13.38
2018-12-20T12:48:10.903Z,13.45
2018-12-20T12:49:10.827Z,13.49
2018-12-20T12:50:10.761Z,13.55
2018-12-20T12:51:10.696Z,13.60
2018-12-20T12:52:10.631Z,13.69
2018-12-20T12:53:10.550Z,13.69